Time;durP1;ratioP1;P1;durP2;ratioP2;P2;SDS_P1;SDS_P2;PMS_P1;PMS_P2;Temp;Humidity;BMP_temperature;BMP_pressure;BME280_temperature;BME280_humidity;BME280_pressure;Samples;Min_cycle;Max_cycle;Signal;HPM_P1;HPM_P2
2023/03/07 00:01:00;;;;;;;2.90;2.60;;;;;1.00;94745.00;;;;5036346;28;20195;-60
2023/03/07 00:03:28;;;;;;;2.17;2.07;;;;;0.90;94742.00;;;;5036101;28;20239;-60
2023/03/07 00:06:01;;;;;;;2.23;2.03;;;;;1.10;94756.00;;;;5036563;28;20204;-60
2023/03/07 00:08:29;;;;;;;1.90;1.80;;;;;1.10;94746.00;;;;5036505;28;20194;-60
2023/03/07 00:11:02;;;;;;;2.47;2.27;;;;;1.10;94750.00;;;;5036097;28;20270;-60
2023/03/07 00:13:31;;;;;;;1.63;1.53;;;;;1.10;94767.00;;;;5036374;28;20219;-63
2023/03/07 00:16:02;;;;;;;2.47;1.63;;;;;1.00;94766.00;;;;5036295;28;20204;-60
2023/03/07 00:18:30;;;;;;;1.20;1.20;;;;;0.90;94767.00;;;;5036340;28;20191;-59
2023/03/07 00:20:58;;;;;;;1.73;1.63;;;;;0.90;94768.00;;;;5035864;28;20713;-59
2023/03/07 00:23:26;;;;;;;1.23;1.23;;;;;0.80;94773.00;;;;5036030;28;20215;-59
2023/03/07 00:26:00;;;;;;;1.10;1.10;;;;;0.80;94766.00;;;;5034601;28;20199;-59
2023/03/07 00:28:27;;;;;;;1.80;1.70;;;;;0.80;94769.00;;;;5034616;28;20188;-59
2023/03/07 00:30:55;;;;;;;4.77;2.60;;;;;0.70;94767.00;;;;5035799;28;20204;-59
2023/03/07 00:33:23;;;;;;;1.97;1.87;;;;;0.70;94754.00;;;;5035783;28;20702;-59
2023/03/07 00:35:58;;;;;;;2.57;2.37;;;;;0.90;94750.00;;;;5035713;28;20197;-59
2023/03/07 00:38:26;;;;;;;2.03;1.47;;;;;1.00;94758.00;;;;5035634;28;20249;-59
2023/03/07 00:40:59;;;;;;;1.40;1.30;;;;;0.90;94747.00;;;;5035626;28;20230;-59
2023/03/07 00:43:27;;;;;;;1.83;1.73;;;;;0.90;94744.00;;;;5035678;28;20217;-59
2023/03/07 00:45:55;;;;;;;1.43;1.33;;;;;0.80;94739.00;;;;5035956;28;20210;-60
2023/03/07 00:48:23;;;;;;;1.50;1.43;;;;;0.90;94743.00;;;;5035493;28;20257;-59
2023/03/07 00:50:52;;;;;;;1.70;1.60;;;;;0.90;94731.00;;;;5035678;28;20184;-59
2023/03/07 00:53:20;;;;;;;3.00;2.77;;;;;0.90;94739.00;;;;5035284;28;20214;-59
2023/03/07 00:55:55;;;;;;;1.87;1.77;;;;;0.80;94732.00;;;;5034077;28;20207;-60
2023/03/07 00:58:25;;;;;;;1.90;1.70;;;;;0.90;94718.00;;;;5035716;28;20199;-59
2023/03/07 01:00:52;;;;;;;1.77;1.53;;;;;0.90;94717.00;;;;5033962;28;20222;-59
2023/03/07 01:03:20;;;;;;;1.20;1.20;;;;;0.80;94715.00;;;;5035112;28;20226;-59
2023/03/07 01:05:48;;;;;;;2.57;2.37;;;;;0.90;94723.00;;;;5035184;28;20206;-59
2023/03/07 01:08:16;;;;;;;3.40;1.90;;;;;0.90;94719.00;;;;5035397;28;20206;-58
2023/03/07 01:10:44;;;;;;;1.80;1.73;;;;;0.80;94721.00;;;;5035090;28;20190;-58
2023/03/07 01:13:12;;;;;;;1.57;1.47;;;;;0.80;94710.00;;;;5034908;28;20266;-59
2023/03/07 01:15:41;;;;;;;1.07;1.07;;;;;0.70;94715.00;;;;5035201;28;20199;-58
2023/03/07 01:18:10;;;;;;;5.20;2.07;;;;;1.00;94716.00;;;;5034940;28;20222;-60
2023/03/07 01:20:39;;;;;;;2.00;1.90;;;;;0.80;94701.00;;;;5035095;28;20227;-59
2023/03/07 01:23:07;;;;;;;1.87;1.80;;;;;0.80;94721.00;;;;5033709;28;20573;-59
2023/03/07 01:25:39;;;;;;;2.20;2.00;;;;;0.90;94706.00;;;;5035019;28;20201;-60
2023/03/07 01:28:07;;;;;;;1.40;1.30;;;;;0.90;94698.00;;;;5035228;28;20186;-59
2023/03/07 01:30:35;;;;;;;1.93;1.53;;;;;0.90;94694.00;;;;5034709;28;20210;-59
2023/03/07 01:33:04;;;;;;;2.80;2.60;;;;;1.00;94703.00;;;;5035096;28;20690;-59
2023/03/07 01:35:37;;;;;;;1.73;1.63;;;;;1.00;94701.00;;;;5034789;28;20294;-60
2023/03/07 01:38:05;;;;;;;2.00;1.90;;;;;1.00;94705.00;;;;5034841;28;20527;-59
2023/03/07 01:40:32;;;;;;;1.53;1.43;;;;;1.10;94704.00;;;;5034422;28;20223;-59
2023/03/07 01:43:22;;;;;;;2.33;2.23;;;;;1.20;94699.00;;;;5034423;28;20694;-59
2023/03/07 01:46:40;;;;;;;2.27;2.07;;;;;1.00;94700.00;;;;5034977;28;20195;-59
2023/03/07 01:49:13;;;;;;;3.47;1.23;;;;;1.20;94695.00;;;;5034893;28;20196;-59
2023/03/07 01:51:44;;;;;;;2.70;1.87;;;;;1.30;94693.00;;;;5034762;28;20623;-60
2023/03/07 01:54:16;;;;;;;2.27;1.43;;;;;1.00;94692.00;;;;5034248;28;20582;-59
2023/03/07 01:56:44;;;;;;;1.40;1.30;;;;;1.10;94685.00;;;;5034991;28;20184;-58
2023/03/07 01:59:13;;;;;;;1.93;1.80;;;;;1.20;94688.00;;;;5034379;28;20256;-61
2023/03/07 02:01:42;;;;;;;1.67;1.57;;;;;1.20;94694.00;;;;5034067;28;20190;-58
2023/03/07 02:04:17;;;;;;;1.43;1.33;;;;;1.10;94681.00;;;;5034160;28;20232;-60
2023/03/07 02:06:44;;;;;;;1.73;1.63;;;;;1.00;94683.00;;;;5034144;28;20187;-59
2023/03/07 02:09:18;;;;;;;1.50;1.50;;;;;0.90;94685.00;;;;5034146;28;20199;-59
2023/03/07 02:11:47;;;;;;;3.77;2.37;;;;;1.00;94677.00;;;;5032794;28;20210;-59
2023/03/07 02:14:14;;;;;;;2.33;1.90;;;;;1.10;94685.00;;;;5034079;28;20605;-59
2023/03/07 02:16:42;;;;;;;2.50;2.30;;;;;1.10;94683.00;;;;5033669;28;20560;-59
2023/03/07 02:19:27;;;;;;;1.20;1.17;;;;;1.00;94679.00;;;;5033661;28;20206;-59
2023/03/07 02:22:04;;;;;;;4.40;1.47;;;;;0.90;94691.00;;;;5034402;28;20252;-59
2023/03/07 02:24:36;;;;;;;1.50;1.50;;;;;0.70;94668.00;;;;5034414;28;20187;-59
2023/03/07 02:27:05;;;;;;;1.30;1.30;;;;;0.80;94678.00;;;;5033656;28;20177;-59
2023/03/07 02:29:33;;;;;;;1.30;1.30;;;;;0.90;94665.00;;;;5033845;28;20283;-60
2023/03/07 02:32:00;;;;;;;2.13;1.60;;;;;0.70;94656.00;;;;5033840;28;20194;-59
2023/03/07 02:34:30;;;;;;;2.60;2.03;;;;;0.90;94654.00;;;;5033793;28;20218;-60
2023/03/07 02:37:01;;;;;;;2.57;2.37;;;;;0.90;94653.00;;;;5033874;28;20233;-60
2023/03/07 02:39:29;;;;;;;2.00;1.87;;;;;1.00;94650.00;;;;5033719;28;20681;-60
2023/03/07 02:41:59;;;;;;;2.63;2.00;;;;;0.90;94653.00;;;;5033461;28;20194;-60
2023/03/07 02:44:28;;;;;;;1.90;1.80;;;;;1.00;94648.00;;;;5033313;28;20225;-59
2023/03/07 02:46:55;;;;;;;1.77;1.67;;;;;0.90;94643.00;;;;5032111;28;20203;-60
2023/03/07 02:49:24;;;;;;;11.83;2.07;;;;;1.00;94642.00;;;;5033583;28;20301;-60
2023/03/07 02:51:56;;;;;;;2.10;2.00;;;;;1.00;94635.00;;;;5033560;28;20252;-60
2023/03/07 02:54:24;;;;;;;2.20;2.10;;;;;0.90;94638.00;;;;5033213;28;20257;-60
2023/03/07 02:56:52;;;;;;;1.53;1.47;;;;;1.10;94630.00;;;;5033281;28;20224;-60
2023/03/07 02:59:20;;;;;;;1.53;1.47;;;;;1.00;94629.00;;;;5033512;28;20778;-60
2023/03/07 03:01:48;;;;;;;2.03;1.73;;;;;0.90;94631.00;;;;5031870;28;20214;-59
2023/03/07 03:04:16;;;;;;;1.73;1.63;;;;;1.00;94632.00;;;;5033028;28;20299;-60
2023/03/07 03:06:43;;;;;;;4.27;2.57;;;;;1.20;94630.00;;;;5032135;28;20203;-60
2023/03/07 03:09:11;;;;;;;1.80;1.70;;;;;1.20;94623.00;;;;5033147;28;20217;-60
2023/03/07 03:11:38;;;;;;;1.30;1.30;;;;;1.20;94625.00;;;;5031878;28;20236;-59
2023/03/07 03:14:06;;;;;;;1.57;1.47;;;;;1.00;94623.00;;;;5033261;28;20222;-59
2023/03/07 03:16:33;;;;;;;1.53;1.43;;;;;1.00;94621.00;;;;5032855;28;20246;-60
2023/03/07 03:19:02;;;;;;;2.43;2.30;;;;;1.00;94616.00;;;;5033025;28;20207;-59
2023/03/07 03:21:30;;;;;;;1.63;1.40;;;;;1.00;94621.00;;;;5033709;28;20258;-59
2023/03/07 03:23:57;;;;;;;3.40;1.67;;;;;1.10;94627.00;;;;5033470;28;20222;-60
2023/03/07 03:26:25;;;;;;;1.17;1.17;;;;;1.10;94623.00;;;;5033289;28;20196;-60
2023/03/07 03:28:54;;;;;;;2.07;1.97;;;;;1.30;94624.00;;;;5034493;28;20194;-59
2023/03/07 03:31:22;;;;;;;1.20;1.20;;;;;1.40;94613.00;;;;5036922;28;20195;-59
2023/03/07 03:33:51;;;;;;;3.03;2.83;;;;;1.30;94612.00;;;;5036816;28;20280;-59
2023/03/07 03:36:24;;;;;;;1.20;1.20;;;;;1.40;94617.00;;;;5037110;28;20551;-58
2023/03/07 03:38:53;;;;;;;2.27;2.07;;;;;1.50;94612.00;;;;5036884;28;20649;-59
2023/03/07 03:41:20;;;;;;;2.07;1.87;;;;;1.30;94625.00;;;;5036944;28;20227;-59
2023/03/07 03:43:48;;;;;;;2.40;2.13;;;;;1.30;94623.00;;;;5036634;28;20225;-59
2023/03/07 03:46:18;;;;;;;1.90;1.80;;;;;1.30;94613.00;;;;5035437;28;20195;-59
2023/03/07 03:48:50;;;;;;;2.27;2.07;;;;;1.20;94626.00;;;;5036934;28;20200;-59
2023/03/07 03:51:19;;;;;;;1.53;1.43;;;;;1.30;94619.00;;;;5035389;28;20187;-59
2023/03/07 03:53:46;;;;;;;2.07;1.87;;;;;1.20;94603.00;;;;5036482;28;20246;-59
2023/03/07 03:56:16;;;;;;;3.90;2.50;;;;;1.20;94619.00;;;;5036782;28;20204;-59
2023/03/07 03:58:43;;;;;;;2.10;1.63;;;;;1.30;94615.00;;;;5036718;28;20198;-60
2023/03/07 04:01:12;;;;;;;2.83;2.63;;;;;1.10;94602.00;;;;5036552;28;20237;-60
2023/03/07 04:03:42;;;;;;;1.73;1.63;;;;;1.00;94609.00;;;;5049514;22;20231;-66
2023/03/07 04:06:11;;;;;;;1.53;1.43;;;;;1.10;94606.00;;;;5036307;28;20613;-66
2023/03/07 04:08:42;;;;;;;1.83;1.73;;;;;1.20;94606.00;;;;5036212;28;20195;-66
2023/03/07 04:11:09;;;;;;;2.40;1.83;;;;;1.20;94600.00;;;;5035899;28;20202;-66
2023/03/07 04:13:37;;;;;;;1.93;1.70;;;;;1.30;94599.00;;;;5035869;28;20223;-66
2023/03/07 04:16:05;;;;;;;2.47;2.20;;;;;1.30;94599.00;;;;5035880;28;20250;-66
2023/03/07 04:18:34;;;;;;;2.77;2.50;;;;;1.40;94609.00;;;;5036027;28;20209;-66
2023/03/07 04:21:01;;;;;;;2.07;1.97;;;;;1.10;94593.00;;;;5035709;28;20281;-66
2023/03/07 04:23:29;;;;;;;2.00;1.90;;;;;1.10;94593.00;;;;5035806;28;20218;-66
2023/03/07 04:26:00;;;;;;;2.13;2.03;;;;;1.20;94585.00;;;;5034433;28;20203;-66
2023/03/07 04:28:41;;;;;;;1.80;1.53;;;;;1.40;94591.00;;;;5035865;28;20246;-66
2023/03/07 04:31:08;;;;;;;2.20;2.10;;;;;1.30;94588.00;;;;5035627;28;20180;-66
2023/03/07 04:33:36;;;;;;;3.60;2.50;;;;;1.20;94592.00;;;;5035765;28;20666;-67
2023/03/07 04:36:03;;;;;;;1.67;1.57;;;;;1.20;94584.00;;;;5035536;28;20195;-66
2023/03/07 04:38:31;;;;;;;3.53;3.33;;;;;1.10;94579.00;;;;5035510;28;20246;-66
2023/03/07 04:40:59;;;;;;;2.57;2.43;;;;;1.10;94580.00;;;;5034667;28;20228;-66
2023/03/07 04:43:27;;;;;;;2.33;2.23;;;;;1.30;94585.00;;;;5035285;28;20709;-66
2023/03/07 04:45:54;;;;;;;2.13;1.93;;;;;1.40;94579.00;;;;5035585;28;20202;-66
2023/03/07 04:48:22;;;;;;;2.67;1.73;;;;;1.40;94578.00;;;;5035275;28;20241;-66
2023/03/07 04:50:50;;;;;;;1.30;1.20;;;;;1.40;94583.00;;;;5035280;28;20242;-66
2023/03/07 04:53:18;;;;;;;2.57;2.37;;;;;1.50;94594.00;;;;5035404;28;20231;-66
2023/03/07 04:55:45;;;;;;;0.90;0.90;;;;;1.40;94591.00;;;;5035199;28;20199;-66
2023/03/07 04:58:15;;;;;;;3.90;1.50;;;;;1.20;94584.00;;;;5035139;28;20240;-67
2023/03/07 05:00:43;;;;;;;3.10;2.80;;;;;1.20;94587.00;;;;5035322;28;20638;-67
2023/03/07 05:03:11;;;;;;;2.07;1.97;;;;;1.40;94581.00;;;;5039635;28;20238;-66
2023/03/07 05:05:39;;;;;;;1.20;1.20;;;;;1.30;94572.00;;;;5054967;28;20241;-66
2023/03/07 05:08:07;;;;;;;1.37;1.37;;;;;1.50;94575.00;;;;5054964;28;20264;-66
2023/03/07 05:10:35;;;;;;;8.47;2.67;;;;;1.20;94547.00;;;;5055317;28;20609;-67
2023/03/07 05:13:02;;;;;;;1.43;1.33;;;;;1.40;94567.00;;;;5054887;28;20218;-67
2023/03/07 05:15:31;;;;;;;2.00;1.90;;;;;1.30;94572.00;;;;5055071;28;20333;-66
2023/03/07 05:17:59;;;;;;;2.07;1.87;;;;;1.40;94572.00;;;;5054986;28;20195;-67
2023/03/07 05:20:28;;;;;;;1.40;1.30;;;;;1.40;94562.00;;;;5054858;28;20222;-67
2023/03/07 05:22:56;;;;;;;2.67;2.17;;;;;1.30;94560.00;;;;5054575;28;20222;-67
2023/03/07 05:25:23;;;;;;;3.70;1.83;;;;;1.30;94564.00;;;;5054724;28;20277;-66
2023/03/07 05:27:51;;;;;;;1.13;1.10;;;;;1.30;94562.00;;;;5036647;28;20206;-66
2023/03/07 05:30:19;;;;;;;1.77;1.67;;;;;1.20;94569.00;;;;5054459;28;20199;-67
2023/03/07 05:32:47;;;;;;;1.67;1.23;;;;;1.30;94560.00;;;;5054578;28;20210;-67
2023/03/07 05:35:15;;;;;;;1.70;1.60;;;;;1.40;94564.00;;;;5054976;28;20195;-67
2023/03/07 05:37:42;;;;;;;1.83;1.73;;;;;1.20;94571.00;;;;5054396;28;20194;-67
2023/03/07 05:40:12;;;;;;;1.97;1.87;;;;;1.20;94569.00;;;;5054323;28;20214;-67
2023/03/07 05:42:40;;;;;;;1.80;1.70;;;;;1.40;94569.00;;;;5054094;28;20587;-67
2023/03/07 05:45:08;;;;;;;2.03;1.93;;;;;1.30;94569.00;;;;5054125;28;20206;-67
2023/03/07 05:47:36;;;;;;;6.27;2.90;;;;;1.20;94567.00;;;;5054126;28;20199;-67
2023/03/07 05:50:06;;;;;;;2.37;2.17;;;;;1.10;94568.00;;;;5054055;28;20249;-67
2023/03/07 05:52:33;;;;;;;1.73;1.63;;;;;1.10;94562.00;;;;5053106;28;20201;-67
2023/03/07 05:55:00;;;;;;;6.90;2.27;;;;;1.20;94562.00;;;;5053991;28;20213;-66
2023/03/07 05:57:28;;;;;;;20.13;2.73;;;;;1.30;94563.00;;;;5054186;28;20214;-67
2023/03/07 05:59:55;;;;;;;1.90;1.80;;;;;1.10;94552.00;;;;5053940;28;20196;-67
2023/03/07 06:02:23;;;;;;;1.47;1.37;;;;;1.10;94548.00;;;;5053762;28;20612;-66
2023/03/07 06:04:50;;;;;;;2.43;2.23;;;;;1.30;94538.00;;;;5053863;28;20326;-67
2023/03/07 06:07:19;;;;;;;1.40;1.40;;;;;1.40;94548.00;;;;5054347;28;20202;-67
2023/03/07 06:09:46;;;;;;;7.67;1.77;;;;;1.30;94548.00;;;;5053724;28;20278;-67
2023/03/07 06:12:14;;;;;;;2.10;1.97;;;;;1.30;94542.00;;;;5053814;28;20200;-67
2023/03/07 06:14:41;;;;;;;0.93;0.93;;;;;1.40;94543.00;;;;5053562;28;20689;-67
2023/03/07 06:17:09;;;;;;;1.83;1.70;;;;;1.60;94539.00;;;;5053427;28;20202;-67
2023/03/07 06:19:36;;;;;;;2.70;2.50;;;;;1.40;94539.00;;;;5053540;28;20190;-67
2023/03/07 06:22:04;;;;;;;1.20;1.20;;;;;1.50;94544.00;;;;5053624;28;20217;-67
2023/03/07 06:24:32;;;;;;;1.53;1.50;;;;;1.70;94540.00;;;;5052202;28;20717;-67
2023/03/07 06:27:00;;;;;;;2.73;2.47;;;;;1.60;94537.00;;;;5053668;28;20202;-67
2023/03/07 06:29:28;;;;;;;2.37;2.27;;;;;1.40;94531.00;;;;5053322;28;20226;-67
2023/03/07 06:31:55;;;;;;;1.33;1.33;;;;;1.30;94538.00;;;;5053575;28;20248;-67
2023/03/07 06:34:23;;;;;;;1.67;1.57;;;;;1.40;94549.00;;;;5053477;28;20580;-67
2023/03/07 06:36:50;;;;;;;2.30;2.20;;;;;1.50;94536.00;;;;5053532;28;20264;-67
2023/03/07 06:39:19;;;;;;;1.80;1.70;;;;;1.50;94548.00;;;;5053342;28;20192;-67
2023/03/07 06:41:49;;;;;;;3.30;1.63;;;;;1.50;94542.00;;;;5054341;28;20227;-67
2023/03/07 06:44:16;;;;;;;1.87;1.77;;;;;1.70;94538.00;;;;5053399;28;20210;-67
2023/03/07 06:46:44;;;;;;;1.73;1.63;;;;;1.50;94548.00;;;;5053119;28;20225;-67
2023/03/07 06:49:12;;;;;;;1.43;1.33;;;;;1.70;94539.00;;;;5053661;28;20203;-67
2023/03/07 06:51:39;;;;;;;1.30;1.30;;;;;1.60;94541.00;;;;5053530;28;20203;-67
2023/03/07 06:54:07;;;;;;;3.23;2.33;;;;;1.90;94547.00;;;;5052983;28;20215;-67
2023/03/07 06:56:34;;;;;;;1.73;1.63;;;;;1.70;94550.00;;;;5053799;28;20197;-67
2023/03/07 06:59:03;;;;;;;3.00;1.70;;;;;1.70;94541.00;;;;5053176;28;20207;-67
2023/03/07 07:01:31;;;;;;;4.43;1.87;;;;;1.90;94547.00;;;;5053126;28;20223;-68
2023/03/07 07:03:58;;;;;;;3.53;3.27;;;;;1.70;94539.00;;;;5052591;28;20249;-67
2023/03/07 07:06:26;;;;;;;1.93;1.83;;;;;1.70;94542.00;;;;5053159;28;20199;-67
2023/03/07 07:08:55;;;;;;;3.23;2.60;;;;;1.90;94540.00;;;;5053007;28;20199;-67
2023/03/07 07:11:23;;;;;;;2.47;2.27;;;;;1.80;94531.00;;;;5053223;28;20194;-67
2023/03/07 07:13:50;;;;;;;1.53;1.50;;;;;2.00;94537.00;;;;5052775;28;20280;-67
2023/03/07 07:16:19;;;;;;;3.83;1.87;;;;;2.10;94530.00;;;;5052705;28;20203;-69
2023/03/07 07:18:49;;;;;;;1.83;1.73;;;;;2.10;94526.00;;;;5047698;28;20199;-67
2023/03/07 07:21:16;;;;;;;1.30;1.30;;;;;2.30;94527.00;;;;5058518;28;20740;-66
2023/03/07 07:23:44;;;;;;;1.43;1.37;;;;;2.40;94528.00;;;;5056281;28;20235;-65
2023/03/07 07:26:11;;;;;;;1.43;1.33;;;;;2.40;94540.00;;;;5068576;28;20209;-65
2023/03/07 07:28:39;;;;;;;2.77;1.40;;;;;2.40;94538.00;;;;5061064;28;20718;-66
2023/03/07 07:31:06;;;;;;;1.17;1.13;;;;;2.50;94536.00;;;;5058635;28;20207;-65
2023/03/07 07:33:35;;;;;;;2.07;1.63;;;;;2.60;94533.00;;;;5070810;28;20230;-66
2023/03/07 07:36:03;;;;;;;1.80;1.70;;;;;2.50;94540.00;;;;5062313;28;20682;-65
2023/03/07 07:38:30;;;;;;;1.93;1.83;;;;;2.40;94536.00;;;;5051069;28;20207;-65
2023/03/07 07:40:57;;;;;;;1.53;1.43;;;;;2.40;94537.00;;;;5050251;28;20207;-65
2023/03/07 07:43:25;;;;;;;1.33;1.33;;;;;2.50;94539.00;;;;5050595;28;20228;-65
2023/03/07 07:45:52;;;;;;;1.83;1.73;;;;;2.50;94545.00;;;;5050579;28;20532;-65
2023/03/07 07:48:20;;;;;;;1.50;1.50;;;;;2.30;94528.00;;;;5050701;28;20211;-66
2023/03/07 07:50:49;;;;;;;1.57;1.57;;;;;2.60;94538.00;;;;5063146;28;20233;-65
2023/03/07 07:53:16;;;;;;;1.63;1.53;;;;;2.50;94533.00;;;;5050454;28;20223;-65
2023/03/07 07:55:44;;;;;;;2.23;1.80;;;;;2.90;94533.00;;;;5050240;28;20195;-65
2023/03/07 07:58:12;;;;;;;1.73;1.63;;;;;3.00;94526.00;;;;5050614;28;20278;-65
2023/03/07 08:00:40;;;;;;;2.37;2.17;;;;;3.10;94536.00;;;;5050137;28;20275;-65
2023/03/07 08:03:07;;;;;;;3.00;2.57;;;;;3.30;94538.00;;;;5031288;28;20690;-65
2023/03/07 08:05:34;;;;;;;1.77;1.60;;;;;3.10;94531.00;;;;5063580;28;20207;-65
2023/03/07 08:08:04;;;;;;;2.00;1.77;;;;;3.10;94532.00;;;;5069992;28;20202;-65
2023/03/07 08:10:31;;;;;;;2.37;1.83;;;;;2.80;94540.00;;;;5065146;28;20200;-65
2023/03/07 08:12:58;;;;;;;1.03;0.97;;;;;2.70;94533.00;;;;5032856;28;20698;-65
2023/03/07 08:15:26;;;;;;;1.93;1.83;;;;;2.50;94531.00;;;;5050376;28;20196;-65
2023/03/07 08:17:53;;;;;;;1.87;1.70;;;;;2.60;94538.00;;;;5053898;28;20250;-65
2023/03/07 08:20:24;;;;;;;2.60;1.57;;;;;2.60;94535.00;;;;5053869;28;20283;-64
2023/03/07 08:22:52;;;;;;;1.90;1.80;;;;;2.80;94529.00;;;;5053059;28;20234;-64
2023/03/07 08:25:23;;;;;;;1.83;1.73;;;;;2.70;94539.00;;;;5052920;28;20623;-64
2023/03/07 08:27:53;;;;;;;1.50;1.37;;;;;2.80;94545.00;;;;5050213;28;20564;-65
2023/03/07 08:30:21;;;;;;;4.73;2.03;;;;;2.50;94546.00;;;;5050927;28;20263;-65
2023/03/07 08:32:50;;;;;;;1.57;1.47;;;;;2.50;94528.00;;;;5053308;28;20225;-65
2023/03/07 08:35:17;;;;;;;1.33;1.23;;;;;2.60;94525.00;;;;5052922;28;20203;-65
2023/03/07 08:37:47;;;;;;;0.97;0.97;;;;;2.80;94510.00;;;;5054009;28;20531;-65
2023/03/07 08:40:16;;;;;;;1.67;1.57;;;;;2.60;94521.00;;;;5052892;28;20207;-65
2023/03/07 08:42:44;;;;;;;1.30;1.30;;;;;2.70;94519.00;;;;5064273;28;20219;-65
2023/03/07 08:45:14;;;;;;;1.23;1.13;;;;;2.50;94528.00;;;;5072430;28;20201;-65
2023/03/07 08:47:41;;;;;;;1.63;1.50;;;;;2.70;94512.00;;;;5052597;28;20207;-65
2023/03/07 08:50:10;;;;;;;2.50;1.50;;;;;3.10;94487.00;;;;5052688;28;20210;-65
2023/03/07 08:52:37;;;;;;;2.20;2.10;;;;;2.70;94516.00;;;;5053026;28;20202;-66
2023/03/07 08:55:06;;;;;;;1.80;1.70;;;;;2.80;94509.00;;;;5052959;28;20199;-64
2023/03/07 08:57:33;;;;;;;3.50;1.20;;;;;2.70;94520.00;;;;5058866;28;20603;-64
2023/03/07 09:00:02;;;;;;;1.10;1.10;;;;;2.80;94521.00;;;;5052448;28;20211;-65
2023/03/07 09:02:29;;;;;;;1.30;1.23;;;;;2.90;94510.00;;;;5060455;28;20225;-65
2023/03/07 09:04:57;;;;;;;1.23;1.23;;;;;2.90;94518.00;;;;5064229;28;20203;-64
2023/03/07 09:07:24;;;;;;;1.67;1.57;;;;;2.80;94512.00;;;;5052980;28;20206;-64
2023/03/07 09:09:52;;;;;;;1.40;1.40;;;;;2.90;94503.00;;;;5052559;28;20235;-64
2023/03/07 09:12:19;;;;;;;1.83;1.30;;;;;3.10;94499.00;;;;5052930;28;20249;-64
2023/03/07 09:14:47;;;;;;;2.00;1.80;;;;;3.10;94485.00;;;;5034605;28;20219;-64
2023/03/07 09:17:17;;;;;;;2.10;2.00;;;;;2.90;94497.00;;;;5052847;28;20207;-65
2023/03/07 09:19:45;;;;;;;1.00;1.00;;;;;2.90;94507.00;;;;5052316;28;20274;-64
2023/03/07 09:22:12;;;;;;;1.17;1.17;;;;;3.00;94503.00;;;;5052637;28;20230;-64
2023/03/07 09:24:40;;;;;;;1.90;1.67;;;;;2.90;94514.00;;;;5065702;28;20621;-64
2023/03/07 09:27:07;;;;;;;1.50;1.40;;;;;2.90;94512.00;;;;5072663;28;20555;-64
2023/03/07 09:29:35;;;;;;;1.77;1.67;;;;;2.80;94522.00;;;;5072560;28;20223;-64
2023/03/07 09:32:05;;;;;;;1.37;1.33;;;;;2.80;94517.00;;;;5072526;28;20669;-64
2023/03/07 09:34:34;;;;;;;3.70;1.83;;;;;2.80;94503.00;;;;5072334;28;20215;-65
2023/03/07 09:37:02;;;;;;;1.00;1.00;;;;;2.80;94501.00;;;;5072413;28;20203;-65
2023/03/07 09:39:29;;;;;;;3.70;1.70;;;;;2.50;94500.00;;;;5054491;28;20673;-65
2023/03/07 09:42:05;;;;;;;2.97;2.63;;;;;2.70;94496.00;;;;5072306;28;20198;-65
2023/03/07 09:44:45;;;;;;;1.23;1.23;;;;;2.80;94500.00;;;;5072070;28;20272;-65
2023/03/07 09:47:46;;;;;;;2.53;1.67;;;;;2.80;94498.00;;;;5049535;28;20666;-65
2023/03/07 09:50:23;;;;;;;1.17;1.17;;;;;2.70;94505.00;;;;5041268;28;20219;-65
2023/03/07 09:52:53;;;;;;;1.07;1.07;;;;;2.60;94491.00;;;;5052120;28;20210;-65
2023/03/07 09:55:21;;;;;;;0.97;0.97;;;;;2.60;94487.00;;;;5052162;28;20210;-65
2023/03/07 09:57:54;;;;;;;1.03;1.03;;;;;2.60;94498.00;;;;5052100;28;20203;-65
2023/03/07 10:00:27;;;;;;;1.47;1.37;;;;;3.00;94488.00;;;;5052148;28;20222;-64
2023/03/07 10:02:58;;;;;;;1.10;1.10;;;;;2.60;94498.00;;;;5051444;28;20234;-64
2023/03/07 10:05:37;;;;;;;1.10;1.10;;;;;2.60;94478.00;;;;5033672;28;20205;-64
2023/03/07 10:08:06;;;;;;;2.40;1.93;;;;;2.90;94481.00;;;;5051635;28;20191;-65
2023/03/07 10:10:39;;;;;;;1.10;1.10;;;;;3.20;94479.00;;;;5051885;28;20216;-64
2023/03/07 10:13:18;;;;;;;2.47;1.47;;;;;2.90;94489.00;;;;5051808;28;20226;-65
2023/03/07 10:15:47;;;;;;;1.30;1.30;;;;;2.90;94476.00;;;;5051709;28;20202;-64
2023/03/07 10:18:31;;;;;;;1.50;1.40;;;;;2.80;94475.00;;;;5051015;28;20212;-65
2023/03/07 10:21:07;;;;;;;0.97;0.97;;;;;2.90;94470.00;;;;5048335;28;20217;-65
2023/03/07 10:24:05;;;;;;;1.53;1.43;;;;;2.90;94474.00;;;;5051017;28;20216;-65
2023/03/07 10:26:34;;;;;;;1.17;1.17;;;;;2.90;94474.00;;;;5052325;28;20556;-64
2023/03/07 10:29:16;;;;;;;1.00;1.00;;;;;2.80;94468.00;;;;5051716;28;20637;-64
2023/03/07 10:31:47;;;;;;;2.50;2.00;;;;;2.90;94464.00;;;;5050848;28;20195;-64
2023/03/07 10:34:20;;;;;;;1.50;1.50;;;;;2.90;94464.00;;;;5051044;28;20228;-65
2023/03/07 10:36:51;;;;;;;1.73;1.63;;;;;2.80;94470.00;;;;5047441;28;20195;-64
2023/03/07 10:39:27;;;;;;;0.97;0.97;;;;;2.60;94487.00;;;;5032885;28;20197;-65
2023/03/07 10:41:56;;;;;;;1.73;1.63;;;;;2.70;94455.00;;;;5051297;28;20186;-64
2023/03/07 10:44:23;;;;;;;1.47;1.37;;;;;2.90;94462.00;;;;5052927;28;20224;-65
2023/03/07 10:46:55;;;;;;;1.47;1.47;;;;;2.90;94454.00;;;;5071637;28;20202;-64
2023/03/07 10:49:26;;;;;;;1.67;1.57;;;;;2.90;94459.00;;;;5060397;28;20318;-66
2023/03/07 10:52:01;;;;;;;1.47;1.37;;;;;2.70;94451.00;;;;5051219;28;20191;-65
2023/03/07 10:54:30;;;;;;;2.83;1.87;;;;;2.90;94478.00;;;;5055819;28;20245;-66
2023/03/07 10:57:09;;;;;;;0.90;0.90;;;;;2.90;94426.00;;;;5070481;28;20209;-64
2023/03/07 10:59:39;;;;;;;1.27;1.27;;;;;2.80;94458.00;;;;5065772;28;20190;-64
2023/03/07 11:02:28;;;;;;;0.90;0.90;;;;;2.90;94449.00;;;;5070526;28;20256;-65
2023/03/07 11:04:56;;;;;;;1.30;1.30;;;;;2.90;94446.00;;;;5070682;28;20301;-64
2023/03/07 11:07:31;;;;;;;1.30;1.30;;;;;2.80;94441.00;;;;5071336;28;20210;-65
2023/03/07 11:09:59;;;;;;;2.03;1.80;;;;;3.00;94459.00;;;;5046484;28;20198;-65
2023/03/07 11:12:30;;;;;;;1.57;1.47;;;;;2.90;94448.00;;;;5050981;28;20195;-64
2023/03/07 11:15:09;;;;;;;1.23;1.13;;;;;3.10;94446.00;;;;5044775;28;20199;-65
2023/03/07 11:17:42;;;;;;;1.67;1.57;;;;;3.30;94454.00;;;;5070913;28;20190;-65
2023/03/07 11:20:20;;;;;;;1.47;1.37;;;;;3.10;94442.00;;;;5070364;28;20257;-65
2023/03/07 11:22:49;;;;;;;1.47;1.47;;;;;2.90;94441.00;;;;5071033;28;20235;-64
2023/03/07 11:25:21;;;;;;;1.73;1.63;;;;;3.00;94444.00;;;;5046452;28;20203;-64
2023/03/07 11:27:52;;;;;;;1.07;1.00;;;;;3.10;94438.00;;;;5051114;28;20203;-65
2023/03/07 11:30:23;;;;;;;1.27;1.20;;;;;2.90;94457.00;;;;5049846;28;20239;-65
2023/03/07 11:33:02;;;;;;;1.10;1.10;;;;;2.90;94458.00;;;;5050357;28;20218;-63
2023/03/07 11:35:52;;;;;;;1.83;1.73;;;;;2.80;94459.00;;;;5066505;28;20623;-63
2023/03/07 11:38:40;;;;;;;1.13;1.13;;;;;2.60;94441.00;;;;5050782;28;20192;-65
2023/03/07 11:41:13;;;;;;;0.90;0.90;;;;;2.70;94451.00;;;;5033027;28;20198;-66
2023/03/07 11:44:10;;;;;;;1.20;1.20;;;;;3.00;94446.00;;;;5050373;28;20231;-63
2023/03/07 11:46:50;;;;;;;1.20;1.20;;;;;3.00;94425.00;;;;5049653;28;20207;-67
2023/03/07 11:49:33;;;;;;;2.30;1.67;;;;;2.90;94419.00;;;;5047126;28;20732;-68
2023/03/07 11:52:13;;;;;;;0.90;0.90;;;;;2.90;94415.00;;;;5054824;28;20192;-68
2023/03/07 11:54:50;;;;;;;1.27;1.20;;;;;3.30;94408.00;;;;5053288;28;20219;-66
2023/03/07 11:57:32;;;;;;;1.37;1.27;;;;;3.30;94400.00;;;;5049893;28;20195;-66
2023/03/07 12:00:14;;;;;;;2.10;2.00;;;;;3.50;94435.00;;;;5054356;28;20705;-66
2023/03/07 12:03:04;;;;;;;2.50;1.70;;;;;3.80;94409.00;;;;5052608;28;20200;-67
2023/03/07 12:05:53;;;;;;;1.40;1.30;;;;;3.80;94402.00;;;;5054188;28;20200;-67
2023/03/07 12:08:44;;;;;;;1.47;1.47;;;;;4.20;94404.00;;;;5051411;28;20227;-67
2023/03/07 12:11:31;;;;;;;1.27;1.27;;;;;5.00;94392.00;;;;5053761;28;20203;-67
2023/03/07 12:14:08;;;;;;;1.13;1.07;;;;;5.20;94406.00;;;;5053722;28;20211;-67
2023/03/07 12:16:45;;;;;;;1.90;1.80;;;;;5.20;94421.00;;;;5054463;28;20196;-67
2023/03/07 12:19:52;;;;;;;1.30;1.20;;;5.80;35.50;5.20;94381.00;;;;5053668;28;20200;-67
2023/03/07 12:22:27;;;;;;;1.27;1.27;;;;;4.80;94373.00;;;;5035415;28;20220;-66
2023/03/07 12:25:12;;;;;;;5.57;3.23;;;;;5.90;94367.00;;;;5060243;28;20206;-66
2023/03/07 12:27:47;;;;;;;1.90;1.00;;;;;5.20;94349.00;;;;5072926;28;20187;-66
2023/03/07 12:30:19;;;;;;;1.00;1.00;;;;;5.90;94360.00;;;;5052363;28;20281;-67
2023/03/07 12:32:47;;;;;;;1.03;1.03;;;;;5.20;94365.00;;;;5053064;28;20250;-67
2023/03/07 12:35:25;;;;;;;1.33;1.33;;;5.80;35.10;5.10;94328.00;;;;5053590;28;20258;-66
2023/03/07 12:37:56;;;;;;;1.00;1.00;;;;;6.20;94336.00;;;;5052117;28;20204;-67
2023/03/07 12:40:32;;;;;;;1.13;1.13;;;6.50;34.00;6.10;94335.00;;;;5053701;28;20184;-67
2023/03/07 12:43:11;;;;;;;1.27;1.27;;;;;5.50;94311.00;;;;5055159;28;20221;-66